createdAt,value
2018-09-09T00:01:03.031Z,67.83
2018-09-09T00:03:41.193Z,67.69
2018-09-09T00:06:18.946Z,68.20
2018-09-09T00:08:55.978Z,67.97
2018-09-09T00:11:34.521Z,68.42
2018-09-09T00:14:10.450Z,67.67
2018-09-09T00:16:48.633Z,67.67
2018-09-09T00:19:26.355Z,67.53
2018-09-09T00:22:03.409Z,68.01
2018-09-09T00:24:40.303Z,68.07
2018-09-09T00:27:17.753Z,67.57
2018-09-09T00:29:55.930Z,67.54
2018-09-09T00:32:33.389Z,67.32
2018-09-09T00:35:11.060Z,67.92
2018-09-09T00:37:46.475Z,67.79
2018-09-09T00:40:23.414Z,67.46
2018-09-09T00:43:01.439Z,67.44
2018-09-09T00:45:38.642Z,67.18
2018-09-09T00:48:07.990Z,66.97
2018-09-09T00:50:42.366Z,67.89
2018-09-09T00:53:16.837Z,67.00
2018-09-09T00:55:46.186Z,67.19
2018-09-09T00:58:15.533Z,67.12
2018-09-09T01:00:50.110Z,67.43
2018-09-09T01:03:19.461Z,66.83
2018-09-09T01:05:48.806Z,67.06
2018-09-09T01:08:18.140Z,67.17
2018-09-09T01:10:47.538Z,66.60
2018-09-09T01:13:16.871Z,67.26
2018-09-09T01:15:46.208Z,66.36
2018-09-09T01:18:15.535Z,66.33
2018-09-09T01:20:44.871Z,66.99
2018-09-09T01:23:14.184Z,67.03
2018-09-09T01:25:43.505Z,67.25
2018-09-09T01:28:12.826Z,66.57
2018-09-09T01:30:42.237Z,66.94
2018-09-09T01:33:11.570Z,66.32
2018-09-09T01:35:40.920Z,66.70
2018-09-09T01:38:10.237Z,66.77
2018-09-09T01:40:39.581Z,66.91
2018-09-09T01:43:08.920Z,66.15
2018-09-09T01:45:38.233Z,65.93
2018-09-09T01:48:07.587Z,66.58
2018-09-09T01:50:36.922Z,65.76
2018-09-09T01:53:06.765Z,66.19
2018-09-09T01:55:36.113Z,66.30
2018-09-09T01:58:05.984Z,65.34
2018-09-09T02:00:35.378Z,65.74
2018-09-09T02:03:05.986Z,65.55
2018-09-09T02:05:35.309Z,65.14
2018-09-09T02:08:04.690Z,65.17
2018-09-09T02:10:34.054Z,65.24
2018-09-09T02:13:03.387Z,65.75
2018-09-09T02:15:32.753Z,64.81
2018-09-09T02:18:02.116Z,64.84
2018-09-09T02:20:31.505Z,64.76
2018-09-09T02:23:00.837Z,65.50
2018-09-09T02:25:30.169Z,65.38
2018-09-09T02:27:59.506Z,64.54
2018-09-09T02:30:28.834Z,65.12
2018-09-09T02:32:58.186Z,64.38
2018-09-09T02:35:27.528Z,64.74
2018-09-09T02:37:56.886Z,64.72
2018-09-09T02:40:26.200Z,64.63
2018-09-09T02:42:55.690Z,64.74
2018-09-09T02:45:25.036Z,65.19
2018-09-09T02:47:54.442Z,64.25
2018-09-09T02:50:23.804Z,64.63
2018-09-09T02:52:53.698Z,64.81
2018-09-09T02:55:23.162Z,65.37
2018-09-09T02:57:52.625Z,64.63
2018-09-09T03:00:22.074Z,65.14
2018-09-09T03:02:51.609Z,65.08
2018-09-09T03:05:21.172Z,64.47
2018-09-09T03:07:50.542Z,64.79
2018-09-09T03:10:19.922Z,65.15
2018-09-09T03:12:49.314Z,65.25
2018-09-09T03:15:18.736Z,65.00
2018-09-09T03:17:48.154Z,65.42
2018-09-09T03:20:17.550Z,65.16
2018-09-09T03:22:46.983Z,65.67
2018-09-09T03:25:16.453Z,65.40
2018-09-09T03:27:45.855Z,65.15
2018-09-09T03:30:20.498Z,66.03
2018-09-09T03:32:56.995Z,65.91
2018-09-09T03:35:26.325Z,65.95
2018-09-09T03:37:55.673Z,66.01
2018-09-09T03:40:25.054Z,66.01
2018-09-09T03:42:54.462Z,66.07
2018-09-09T03:45:23.790Z,65.67
2018-09-09T03:47:53.162Z,65.71
2018-09-09T03:50:22.504Z,65.83
2018-09-09T03:52:51.905Z,65.76
2018-09-09T03:55:21.229Z,66.26
2018-09-09T03:57:50.553Z,65.69
2018-09-09T04:00:19.932Z,65.77
2018-09-09T04:02:49.280Z,65.69
2018-09-09T04:05:18.618Z,65.75
2018-09-09T04:07:47.981Z,66.38
2018-09-09T04:10:17.330Z,66.39
2018-09-09T04:12:46.685Z,66.21
2018-09-09T04:15:16.016Z,66.84
2018-09-09T04:17:45.377Z,66.29
2018-09-09T04:20:14.743Z,66.71
2018-09-09T04:25:19.841Z,66.74
2018-09-09T04:27:49.560Z,66.65
2018-09-09T04:30:18.924Z,66.79
2018-09-09T04:32:48.267Z,67.17
2018-09-09T04:35:17.624Z,67.10
2018-09-09T04:37:46.999Z,66.81
2018-09-09T04:40:16.300Z,66.91
2018-09-09T04:42:45.661Z,66.89
2018-09-09T04:45:15.021Z,67.66
2018-09-09T04:47:44.367Z,67.52
2018-09-09T04:50:13.689Z,67.11
2018-09-09T04:52:43.053Z,67.42
2018-09-09T04:55:12.409Z,67.30
2018-09-09T04:57:41.879Z,68.09
2018-09-09T05:00:11.632Z,67.41
2018-09-09T05:02:41.403Z,67.73
2018-09-09T05:05:10.901Z,68.00
2018-09-09T05:07:40.546Z,67.91
2018-09-09T05:10:10.284Z,68.21
2018-09-09T05:12:40.028Z,67.99
2018-09-09T05:15:09.536Z,67.83
2018-09-09T05:17:39.150Z,68.14
2018-09-09T05:20:08.746Z,67.84
2018-09-09T05:22:38.374Z,68.37
2018-09-09T05:25:08.006Z,68.00
2018-09-09T05:27:37.661Z,67.81
2018-09-09T05:30:08.308Z,68.06
2018-09-09T05:32:37.916Z,68.48
2018-09-09T05:35:07.730Z,67.62
2018-09-09T05:37:37.338Z,67.42
2018-09-09T05:40:07.243Z,67.28
2018-09-09T05:42:36.884Z,67.86
2018-09-09T05:45:07.080Z,67.40
2018-09-09T05:47:36.608Z,67.85
2018-09-09T05:50:06.171Z,68.02
2018-09-09T05:52:35.702Z,67.48
2018-09-09T05:55:06.644Z,67.88
2018-09-09T05:57:36.180Z,67.75
2018-09-09T06:00:06.787Z,67.68
2018-09-09T06:02:37.217Z,67.91
2018-09-09T06:05:06.892Z,67.68
2018-09-09T06:07:36.507Z,67.39
2018-09-09T06:10:06.952Z,67.52
2018-09-09T06:12:36.536Z,67.89
2018-09-09T06:15:06.662Z,68.08
2018-09-09T06:17:36.283Z,67.76
2018-09-09T06:20:07.001Z,67.11
2018-09-09T06:22:36.567Z,67.84
2018-09-09T06:25:06.442Z,67.20
2018-09-09T06:27:36.030Z,67.25
2018-09-09T06:30:06.652Z,67.48
2018-09-09T06:32:36.244Z,67.13
2018-09-09T06:35:06.587Z,66.49
2018-09-09T06:37:36.132Z,66.78
2018-09-09T06:40:05.804Z,67.07
2018-09-09T06:42:35.615Z,66.92
2018-09-09T06:45:06.543Z,67.02
2018-09-09T06:47:36.186Z,66.55
2018-09-09T06:52:49.328Z,66.59
2018-09-09T06:55:18.904Z,66.90
2018-09-09T06:57:48.444Z,66.81
2018-09-09T07:00:18.034Z,66.04
2018-09-09T07:02:47.729Z,66.60
2018-09-09T07:05:17.324Z,65.62
2018-09-09T07:07:47.056Z,66.00
2018-09-09T07:10:17.021Z,65.76
2018-09-09T07:12:46.811Z,65.36
2018-09-09T07:15:19.177Z,65.92
2018-09-09T07:17:48.855Z,66.16
2018-09-09T07:20:18.456Z,65.94
2018-09-09T07:22:48.527Z,66.69
2018-09-09T07:25:18.301Z,66.39
2018-09-09T07:27:48.123Z,65.74
2018-09-09T07:30:17.953Z,66.49
2018-09-09T07:32:48.275Z,65.72
2018-09-09T07:35:18.111Z,65.96
2018-09-09T07:37:47.960Z,66.37
2018-09-09T07:40:17.734Z,66.67
2018-09-09T07:42:47.419Z,66.19
2018-09-09T07:45:17.116Z,65.35
2018-09-09T07:47:47.062Z,65.00
2018-09-09T07:50:16.851Z,63.85
2018-09-09T07:52:46.443Z,64.09
2018-09-09T07:55:16.142Z,62.43
2018-09-09T07:57:45.856Z,62.11
2018-09-09T08:00:15.662Z,63.40
2018-09-09T08:02:45.465Z,63.71
2018-09-09T08:05:15.073Z,63.39
2018-09-09T08:07:44.675Z,64.33
2018-09-09T08:10:14.287Z,63.92
2018-09-09T08:12:43.897Z,63.84
2018-09-09T08:15:14.662Z,64.01
2018-09-09T08:17:44.560Z,64.27
2018-09-09T08:20:14.258Z,64.55
2018-09-09T08:22:43.941Z,63.18
2018-09-09T08:25:13.674Z,62.75
2018-09-09T08:27:43.389Z,62.25
2018-09-09T08:30:13.240Z,61.55
2018-09-09T08:32:42.805Z,61.19
2018-09-09T08:35:12.483Z,60.99
2018-09-09T08:37:42.218Z,60.11
2018-09-09T08:40:11.826Z,60.26
2018-09-09T08:42:41.457Z,60.52
2018-09-09T08:45:11.154Z,59.18
2018-09-09T08:47:40.847Z,58.99
2018-09-09T08:50:11.022Z,59.02
2018-09-09T08:52:40.718Z,59.24
2018-09-09T08:55:10.385Z,59.22
2018-09-09T08:57:39.807Z,58.54
2018-09-09T09:00:09.289Z,57.93
2018-09-09T09:02:50.727Z,58.50
2018-09-09T09:05:20.135Z,58.25
2018-09-09T09:07:49.612Z,57.33
2018-09-09T09:10:19.011Z,57.84
2018-09-09T09:12:48.389Z,58.21
2018-09-09T09:15:17.786Z,57.92
2018-09-09T09:17:47.575Z,58.21
2018-09-09T09:20:16.951Z,57.43
2018-09-09T09:22:46.293Z,57.11
2018-09-09T09:25:15.730Z,56.53
2018-09-09T09:27:45.170Z,55.78
2018-09-09T09:30:14.547Z,55.73
2018-09-09T09:32:46.033Z,55.61
2018-09-09T09:35:15.418Z,55.79
2018-09-09T09:37:44.937Z,54.91
2018-09-09T09:40:14.398Z,55.12
2018-09-09T09:42:43.725Z,54.77
2018-09-09T09:45:13.038Z,54.99
2018-09-09T09:47:42.406Z,55.54
2018-09-09T09:50:11.810Z,55.33
2018-09-09T09:52:41.148Z,54.93
2018-09-09T09:55:10.619Z,54.45
2018-09-09T09:57:39.988Z,54.14
2018-09-09T10:00:13.449Z,54.03
2018-09-09T10:02:42.855Z,54.03
2018-09-09T10:05:12.249Z,54.25
2018-09-09T10:07:41.750Z,53.58
2018-09-09T10:10:11.224Z,53.64
2018-09-09T10:12:40.633Z,52.62
2018-09-09T10:15:10.072Z,52.88
2018-09-09T10:17:39.464Z,51.69
2018-09-09T10:20:08.896Z,52.04
2018-09-09T10:22:38.402Z,51.24
2018-09-09T10:25:07.824Z,51.96
2018-09-09T10:27:37.262Z,50.83
2018-09-09T10:30:08.078Z,50.57
2018-09-09T10:32:39.993Z,50.94
2018-09-09T10:35:09.455Z,50.63
2018-09-09T10:37:38.966Z,51.18
2018-09-09T10:40:08.399Z,51.64
2018-09-09T10:42:37.827Z,51.90
2018-09-09T10:45:07.219Z,51.49
2018-09-09T10:47:36.597Z,51.33
2018-09-09T10:50:06.930Z,50.58
2018-09-09T10:52:36.277Z,50.42
2018-09-09T10:55:06.406Z,50.57
2018-09-09T10:57:35.866Z,49.98
2018-09-09T11:00:06.451Z,50.44
2018-09-09T11:02:35.950Z,50.16
2018-09-09T11:05:06.208Z,50.50
2018-09-09T11:07:35.592Z,50.24
2018-09-09T11:10:06.301Z,49.83
2018-09-09T11:12:36.220Z,50.64
2018-09-09T11:15:06.455Z,51.11
2018-09-09T11:17:35.853Z,51.29
2018-09-09T11:20:06.644Z,52.08
2018-09-09T11:22:36.354Z,52.42
2018-09-09T11:25:07.114Z,51.53
2018-09-09T11:27:36.522Z,51.28
2018-09-09T11:30:06.393Z,50.42
2018-09-09T11:32:35.906Z,49.30
2018-09-09T11:35:06.718Z,49.60
2018-09-09T11:37:36.076Z,49.51
2018-09-09T11:40:07.126Z,49.04
2018-09-09T11:42:36.520Z,48.40
2018-09-09T11:45:06.736Z,48.33
2018-09-09T11:47:36.137Z,48.28
2018-09-09T11:50:05.618Z,48.22
2018-09-09T11:52:35.196Z,46.56
2018-09-09T11:55:04.648Z,46.13
2018-09-09T11:57:34.014Z,45.54
2018-09-09T12:00:03.449Z,45.69
2018-09-09T12:02:32.797Z,44.93
2018-09-09T12:05:02.224Z,44.58
2018-09-09T12:07:31.613Z,45.06
2018-09-09T12:10:00.930Z,44.68
2018-09-09T12:12:30.345Z,43.34
2018-09-09T12:14:59.957Z,43.35
2018-09-09T12:17:29.338Z,42.98
2018-09-09T12:19:58.871Z,42.12
2018-09-09T12:22:28.274Z,43.02
2018-09-09T12:24:57.723Z,41.40
2018-09-09T12:27:27.058Z,40.96
2018-09-09T12:29:56.499Z,41.58
2018-09-09T12:32:26.054Z,40.53
2018-09-09T12:34:56.177Z,39.80
2018-09-09T12:37:25.538Z,40.31
2018-09-09T12:39:54.869Z,38.78
2018-09-09T12:42:24.232Z,38.97
2018-09-09T12:44:58.803Z,38.95
2018-09-09T12:47:33.439Z,39.90
2018-09-09T12:50:02.798Z,38.13
2018-09-09T12:52:32.138Z,36.92
2018-09-09T12:55:01.652Z,36.05
2018-09-09T12:57:30.973Z,35.29
2018-09-09T13:00:00.363Z,35.30
2018-09-09T13:02:29.983Z,34.70
2018-09-09T13:04:59.357Z,34.00
2018-09-09T13:07:28.900Z,32.82
2018-09-09T13:09:58.234Z,33.85
2018-09-09T13:12:31.814Z,35.22
2018-09-09T13:15:01.190Z,36.47
2018-09-09T13:17:30.500Z,35.71
2018-09-09T13:19:59.869Z,35.64
2018-09-09T13:22:29.273Z,36.92
2018-09-09T13:25:02.497Z,36.52
2018-09-09T13:27:31.841Z,38.03
2018-09-09T13:32:24.049Z,37.18
2018-09-09T13:34:53.356Z,36.92
2018-09-09T13:37:22.702Z,37.56
2018-09-09T13:39:52.124Z,37.45
2018-09-09T13:42:21.466Z,39.02
2018-09-09T13:44:50.814Z,39.04
2018-09-09T13:47:20.393Z,39.37
2018-09-09T13:49:49.728Z,38.61
2018-09-09T13:52:19.065Z,37.95
2018-09-09T13:54:48.409Z,37.00
2018-09-09T13:57:17.722Z,35.81
2018-09-09T13:59:47.064Z,35.53
2018-09-09T14:02:16.406Z,35.61
2018-09-09T14:04:45.785Z,34.61
2018-09-09T14:07:15.275Z,35.89
2018-09-09T14:09:44.689Z,35.90
2018-09-09T14:12:13.978Z,36.48
2018-09-09T14:14:43.322Z,37.21
2018-09-09T14:17:12.640Z,36.50
2018-09-09T14:19:42.179Z,37.20
2018-09-09T14:22:11.566Z,37.01
2018-09-09T14:24:40.854Z,36.98
2018-09-09T14:27:10.174Z,37.91
2018-09-09T14:29:39.508Z,36.65
2018-09-09T14:32:08.829Z,35.76
2018-09-09T14:34:38.171Z,35.10
2018-09-09T14:37:07.545Z,34.92
2018-09-09T14:39:36.868Z,36.51
2018-09-09T14:42:06.270Z,38.70
2018-09-09T14:44:35.600Z,39.24
2018-09-09T14:47:06.180Z,38.33
2018-09-09T14:49:35.622Z,39.16
2018-09-09T14:52:06.216Z,39.15
2018-09-09T14:54:35.583Z,37.51
2018-09-09T14:57:06.200Z,38.34
2018-09-09T14:59:35.597Z,37.92
2018-09-09T15:02:06.059Z,36.83
2018-09-09T15:04:35.424Z,35.92
2018-09-09T15:07:06.148Z,37.42
2018-09-09T15:09:35.514Z,36.64
2018-09-09T15:12:04.850Z,36.83
2018-09-09T15:14:34.214Z,37.16
2018-09-09T15:17:03.540Z,35.82
2018-09-09T15:19:32.862Z,36.36
2018-09-09T15:22:02.210Z,35.76
2018-09-09T15:24:31.562Z,36.68
2018-09-09T15:27:00.884Z,37.42
2018-09-09T15:29:30.204Z,38.15
2018-09-09T15:31:59.548Z,38.67
2018-09-09T15:34:28.879Z,36.75
2018-09-09T15:36:58.224Z,34.44
2018-09-09T15:39:27.569Z,33.71
2018-09-09T15:41:56.934Z,36.25
2018-09-09T15:44:26.274Z,35.82
2018-09-09T15:46:55.627Z,34.63
2018-09-09T15:49:24.962Z,30.92
2018-09-09T15:51:54.368Z,30.22
2018-09-09T15:54:23.717Z,29.22
2018-09-09T15:56:53.081Z,27.79
2018-09-09T15:59:22.414Z,30.61
2018-09-09T16:01:51.800Z,32.08
2018-09-09T16:04:21.137Z,33.93
2018-09-09T16:06:50.501Z,35.39
2018-09-09T16:09:19.860Z,35.72
2018-09-09T16:11:49.257Z,36.63
2018-09-09T16:14:18.541Z,36.37
2018-09-09T16:16:47.880Z,34.96
2018-09-09T16:19:17.374Z,33.24
2018-09-09T16:21:46.700Z,31.76
2018-09-09T16:24:16.119Z,32.98
2018-09-09T16:26:45.416Z,35.03
2018-09-09T16:31:58.542Z,37.24
2018-09-09T16:34:27.869Z,38.12
2018-09-09T16:36:57.184Z,38.84
2018-09-09T16:39:26.526Z,37.80
2018-09-09T16:41:55.839Z,38.78
2018-09-09T16:44:25.203Z,37.22
2018-09-09T16:46:54.565Z,37.99
2018-09-09T16:49:23.910Z,37.61
2018-09-09T16:51:53.254Z,35.35
2018-09-09T16:54:22.642Z,33.11
2018-09-09T16:56:53.685Z,33.30
2018-09-09T16:59:23.018Z,34.28
2018-09-09T17:01:52.329Z,36.76
2018-09-09T17:04:21.689Z,37.61
2018-09-09T17:06:51.465Z,37.43
2018-09-09T17:09:20.798Z,38.04
2018-09-09T17:11:50.145Z,39.08
2018-09-09T17:14:19.474Z,39.52
2018-09-09T17:16:48.933Z,38.65
2018-09-09T17:19:18.329Z,38.60
2018-09-09T17:21:47.702Z,37.22
2018-09-09T17:24:17.057Z,35.88
2018-09-09T17:26:46.406Z,36.20
2018-09-09T17:29:15.767Z,36.01
2018-09-09T17:31:45.113Z,36.24
2018-09-09T17:34:14.674Z,37.71
2018-09-09T17:36:44.071Z,39.97
2018-09-09T17:39:13.452Z,41.40
2018-09-09T17:41:42.786Z,41.61
2018-09-09T17:44:12.114Z,42.80
2018-09-09T17:46:41.505Z,44.33
2018-09-09T17:49:10.981Z,44.68
2018-09-09T17:51:40.359Z,45.01
2018-09-09T17:54:09.743Z,46.20
2018-09-09T17:56:39.151Z,47.02
2018-09-09T17:59:08.534Z,47.31
2018-09-09T18:01:38.054Z,47.58
2018-09-09T18:04:07.587Z,48.97
2018-09-09T18:06:36.998Z,49.23
2018-09-09T18:09:08.343Z,49.75
2018-09-09T18:11:37.726Z,50.87
2018-09-09T18:14:07.071Z,51.17
2018-09-09T18:16:36.509Z,51.31
2018-09-09T18:19:06.239Z,51.52
2018-09-09T18:21:35.673Z,51.55
2018-09-09T18:24:06.421Z,52.18
2018-09-09T18:26:35.881Z,52.31
2018-09-09T18:29:06.501Z,51.91
2018-09-09T18:31:35.868Z,52.42
2018-09-09T18:34:06.464Z,53.12
2018-09-09T18:36:36.281Z,52.81
2018-09-09T18:39:09.046Z,53.67
2018-09-09T18:41:38.296Z,53.46
2018-09-09T18:44:07.634Z,53.79
2018-09-09T18:46:37.043Z,53.31
2018-09-09T18:49:06.453Z,54.52
2018-09-09T18:51:35.808Z,53.81
2018-09-09T18:54:06.397Z,54.13
2018-09-09T18:56:35.805Z,55.21
2018-09-09T18:59:06.427Z,55.16
2018-09-09T19:01:35.773Z,54.78
2018-09-09T19:04:06.018Z,55.57
2018-09-09T19:06:35.360Z,55.59
2018-09-09T19:09:04.996Z,55.22
2018-09-09T19:11:34.353Z,55.87
2018-09-09T19:14:04.006Z,56.10
2018-09-09T19:16:33.273Z,56.81
2018-09-09T19:19:02.613Z,56.87
2018-09-09T19:21:31.973Z,57.44
2018-09-09T19:24:01.645Z,56.88
2018-09-09T19:26:31.302Z,57.76
2018-09-09T19:29:00.732Z,57.12
2018-09-09T19:31:30.168Z,57.56
2018-09-09T19:33:59.505Z,57.58
2018-09-09T19:36:28.872Z,58.28
2018-09-09T19:38:58.310Z,58.52
2018-09-09T19:41:27.722Z,57.88
2018-09-09T19:43:57.090Z,58.15
2018-09-09T19:46:26.534Z,58.06
2018-09-09T19:48:55.890Z,58.06
2018-09-09T19:51:25.280Z,58.17
2018-09-09T19:53:54.601Z,58.21
2018-09-09T19:56:23.974Z,58.06
2018-09-09T19:58:53.365Z,58.93
2018-09-09T20:01:22.736Z,58.47
2018-09-09T20:03:53.738Z,58.66
2018-09-09T20:06:23.127Z,58.45
2018-09-09T20:08:52.462Z,58.84
2018-09-09T20:11:21.929Z,58.70
2018-09-09T20:13:52.125Z,58.44
2018-09-09T20:16:21.478Z,58.57
2018-09-09T20:18:50.854Z,58.61
2018-09-09T20:21:20.462Z,59.42
2018-09-09T20:23:49.859Z,58.30
2018-09-09T20:26:19.300Z,58.86
2018-09-09T20:28:48.782Z,58.93
2018-09-09T20:31:18.121Z,58.21
2018-09-09T20:33:48.908Z,58.27
2018-09-09T20:36:18.328Z,59.13
2018-09-09T20:38:48.337Z,58.45
2018-09-09T20:41:17.743Z,58.25
2018-09-09T20:43:47.124Z,58.11
2018-09-09T20:46:16.515Z,58.79
2018-09-09T20:48:45.922Z,58.62
2018-09-09T20:51:15.368Z,58.80
2018-09-09T20:53:44.737Z,58.45
2018-09-09T20:56:14.105Z,58.27
2018-09-09T20:58:43.449Z,58.70
2018-09-09T21:01:12.938Z,58.88
2018-09-09T21:03:42.295Z,58.44
2018-09-09T21:06:11.725Z,58.04
2018-09-09T21:08:41.043Z,58.24
2018-09-09T21:11:10.415Z,58.50
2018-09-09T21:13:40.023Z,58.37
2018-09-09T21:16:09.373Z,58.62
2018-09-09T21:18:38.862Z,58.49
2018-09-09T21:21:10.252Z,57.91
2018-09-09T21:23:39.703Z,57.82
2018-09-09T21:26:09.088Z,57.88
2018-09-09T21:28:38.430Z,57.83
2018-09-09T21:31:07.778Z,57.88
2018-09-09T21:33:37.118Z,58.46
2018-09-09T21:36:06.982Z,57.96
2018-09-09T21:38:36.378Z,58.64
2018-09-09T21:41:06.077Z,58.55
2018-09-09T21:43:35.406Z,58.05
2018-09-09T21:46:05.986Z,58.02
2018-09-09T21:48:35.409Z,58.69
2018-09-09T21:51:04.749Z,58.63
2018-09-09T21:53:34.120Z,57.93
2018-09-09T21:56:03.450Z,58.57
2018-09-09T21:58:32.753Z,59.12
2018-09-09T22:01:07.226Z,58.98
2018-09-09T22:03:36.534Z,58.34
2018-09-09T22:06:06.088Z,58.48
2018-09-09T22:08:35.457Z,59.14
2018-09-09T22:11:06.059Z,58.46
2018-09-09T22:13:35.477Z,58.38
2018-09-09T22:16:04.823Z,58.48
2018-09-09T22:18:34.185Z,58.46
2018-09-09T22:21:03.528Z,59.05
2018-09-09T22:23:32.920Z,59.42
2018-09-09T22:26:02.229Z,58.82
2018-09-09T22:28:31.576Z,58.90
2018-09-09T22:31:00.939Z,58.69
2018-09-09T22:33:30.284Z,59.03
2018-09-09T22:35:59.653Z,58.88
2018-09-09T22:38:29.002Z,58.80
2018-09-09T22:40:58.349Z,59.08
2018-09-09T22:43:27.655Z,58.85
2018-09-09T22:45:59.749Z,59.70
2018-09-09T22:48:29.571Z,59.57
2018-09-09T22:50:58.922Z,59.23
2018-09-09T22:53:28.254Z,59.31
2018-09-09T22:55:57.748Z,59.58
2018-09-09T22:58:27.273Z,59.55
2018-09-09T23:00:56.618Z,60.52
2018-09-09T23:03:25.927Z,60.57
2018-09-09T23:06:03.182Z,60.81
2018-09-09T23:08:39.660Z,60.79
2018-09-09T23:11:16.980Z,60.34
2018-09-09T23:13:55.149Z,60.23
2018-09-09T23:16:33.117Z,60.42
2018-09-09T23:19:07.164Z,61.02
2018-09-09T23:21:42.382Z,60.64
2018-09-09T23:24:20.316Z,61.36
2018-09-09T23:26:57.523Z,60.99
2018-09-09T23:29:36.312Z,61.59
2018-09-09T23:32:14.626Z,61.66
2018-09-09T23:34:52.873Z,61.91
2018-09-09T23:37:31.758Z,61.46
2018-09-09T23:40:11.650Z,61.76
2018-09-09T23:42:50.320Z,61.16
2018-09-09T23:45:29.114Z,61.48
2018-09-09T23:50:34.929Z,62.04
2018-09-09T23:53:13.129Z,61.71
2018-09-09T23:55:51.095Z,62.73
2018-09-09T23:58:28.562Z,62.21
